Time;durP1;ratioP1;P1;durP2;ratioP2;P2;SDS_P1;SDS_P2;PMS_P1;PMS_P2;Temp;Humidity;BMP_temperature;BMP_pressure;BME280_temperature;BME280_humidity;BME280_pressure;Samples;Min_cycle;Max_cycle;Signal;HPM_P1;HPM_P2
2023/05/22 00:00:38;;;;;;;24.58;18.35;;;20.70;74.60;;;;;;5069466;28;20020;-64
2023/05/22 00:03:04;;;;;;;24.05;18.92;;;20.70;74.70;;;;;;5072559;28;20115;-63
2023/05/22 00:05:30;;;;;;;25.20;18.65;;;20.60;74.80;;;;;;5073251;28;20059;-63
2023/05/22 00:07:56;;;;;;;25.35;18.42;;;20.60;74.90;;;;;;5066478;28;20060;-63
2023/05/22 00:10:21;;;;;;;24.30;19.48;;;20.60;75.00;;;;;;5070781;28;20035;-63
2023/05/22 00:12:47;;;;;;;22.95;18.48;;;20.60;75.20;;;;;;5067197;28;20025;-63
2023/05/22 00:15:13;;;;;;;23.65;18.05;;;20.60;75.30;;;;;;5071056;28;20032;-64
2023/05/22 00:17:39;;;;;;;22.42;18.15;;;20.60;75.40;;;;;;5064658;28;20036;-63
2023/05/22 00:20:07;;;;;;;22.35;18.27;;;20.50;75.50;;;;;;5066975;28;20040;-63
2023/05/22 00:22:36;;;;;;;22.45;17.10;;;20.50;75.60;;;;;;5058038;28;20107;-63
2023/05/22 00:25:06;;;;;;;21.35;17.45;;;20.40;75.70;;;;;;5066605;28;20032;-64
2023/05/22 00:27:33;;;;;;;22.98;17.85;;;20.40;76.00;;;;;;5064130;28;20045;-63
2023/05/22 00:29:59;;;;;;;21.33;17.65;;;20.30;76.00;;;;;;5071485;28;20017;-63
2023/05/22 00:32:25;;;;;;;22.80;16.73;;;20.30;76.10;;;;;;5047654;28;20018;-64
2023/05/22 00:34:51;;;;;;;24.92;18.85;;;20.30;76.20;;;;;;5084691;28;20145;-63
2023/05/22 00:37:21;;;;;;;20.83;16.65;;;20.30;76.20;;;;;;5070463;28;20024;-64
2023/05/22 00:39:47;;;;;;;19.77;16.20;;;20.30;76.20;;;;;;5063285;28;20028;-63
2023/05/22 00:42:13;;;;;;;20.38;15.50;;;20.20;76.10;;;;;;5072629;28;20032;-63
2023/05/22 00:44:40;;;;;;;20.95;16.02;;;20.20;76.10;;;;;;5068386;28;20123;-64
2023/05/22 00:47:06;;;;;;;20.45;16.52;;;20.20;76.00;;;;;;5072110;28;20036;-63
2023/05/22 00:49:32;;;;;;;19.88;14.90;;;20.10;76.00;;;;;;5064631;28;20032;-63
2023/05/22 00:51:59;;;;;;;22.63;15.43;;;20.10;76.00;;;;;;5072157;28;20029;-64
2023/05/22 00:54:25;;;;;;;19.23;14.75;;;20.00;76.10;;;;;;5068573;28;20074;-63
2023/05/22 00:56:51;;;;;;;21.15;16.02;;;20.00;76.10;;;;;;5068589;28;20025;-63
2023/05/22 00:59:17;;;;;;;19.80;14.70;;;19.90;76.20;;;;;;5071311;28;20461;-63
2023/05/22 01:01:43;;;;;;;20.35;14.25;;;19.90;76.10;;;;;;5070860;28;20040;-63
2023/05/22 01:04:10;;;;;;;21.63;16.42;;;19.90;76.20;;;;;;5069460;28;20029;-63
2023/05/22 01:06:37;;;;;;;20.30;15.15;;;19.90;76.30;;;;;;5067526;28;20037;-64
2023/05/22 01:09:03;;;;;;;20.77;15.52;;;19.90;76.20;;;;;;5066268;28;20090;-64
2023/05/22 01:11:35;;;;;;;18.40;14.93;;;19.90;76.30;;;;;;5071839;28;20052;-64
2023/05/22 01:14:09;;;;;;;22.17;16.83;;;19.90;76.30;;;;;;5071885;28;20081;-64
2023/05/22 01:16:45;;;;;;;22.25;16.08;;;19.90;76.30;;;;;;5063182;28;20020;-64
2023/05/22 01:19:10;;;;;;;21.15;16.23;;;19.90;76.30;;;;;;5068951;28;20021;-64
2023/05/22 01:21:58;;;;;;;20.63;15.68;;;19.80;76.20;;;;;;5076407;28;20334;-64
2023/05/22 01:24:42;;;;;;;20.65;14.95;;;19.80;76.30;;;;;;5073037;28;20440;-64
2023/05/22 01:27:27;;;;;;;22.50;15.85;;;19.80;76.30;;;;;;5064715;28;20108;-64
2023/05/22 01:30:00;;;;;;;20.38;15.05;;;19.80;76.40;;;;;;5068523;28;20040;-64
2023/05/22 01:32:28;;;;;;;19.95;15.52;;;19.80;76.50;;;;;;5072237;28;20150;-64
2023/05/22 01:34:58;;;;;;;20.17;15.85;;;19.80;76.50;;;;;;5071656;28;20035;-64
2023/05/22 01:37:24;;;;;;;20.92;16.75;;;19.80;76.60;;;;;;5063673;28;20020;-64
2023/05/22 01:39:51;;;;;;;20.75;15.75;;;19.80;76.60;;;;;;5074532;28;20017;-64
2023/05/22 01:46:05;;;;;;;19.30;14.63;;;19.70;76.60;;;;;;5067126;28;20580;-66
2023/05/22 01:48:31;;;;;;;22.70;16.10;;;19.70;76.70;;;;;;5074058;28;20115;-64
2023/05/22 01:51:02;;;;;;;22.35;16.73;;;19.70;76.80;;;;;;5073103;28;20107;-64
2023/05/22 01:53:36;;;;;;;26.23;17.42;;;19.70;76.90;;;;;;5076378;28;20032;-64
2023/05/22 01:56:47;;;;;;;23.00;15.98;;;19.60;76.80;;;;;;5073927;28;20028;-63
2023/05/22 01:59:30;;;;;;;19.70;15.20;;;19.60;76.80;;;;;;5020726;28;20111;-63
2023/05/22 02:02:01;;;;;;;22.08;15.63;;;19.60;76.80;;;;;;5066409;28;20032;-63
2023/05/22 02:04:28;;;;;;;19.88;15.48;;;19.60;76.80;;;;;;5076198;28;20039;-63
2023/05/22 02:06:58;;;;;;;20.05;15.07;;;19.60;76.80;;;;;;5071501;28;20016;-64
2023/05/22 02:09:28;;;;;;;20.90;14.80;;;19.50;76.80;;;;;;5067471;28;20025;-63
2023/05/22 02:11:55;;;;;;;18.92;14.85;;;19.50;76.80;;;;;;5074677;28;20044;-63
2023/05/22 02:14:21;;;;;;;21.63;15.13;;;19.50;76.80;;;;;;5075108;28;20102;-63
2023/05/22 02:16:47;;;;;;;18.88;14.48;;;19.50;76.80;;;;;;5071792;28;20024;-63
2023/05/22 02:19:14;;;;;;;20.00;15.13;;;19.40;76.70;;;;;;5062183;28;20040;-63
2023/05/22 02:21:40;;;;;;;21.33;15.65;;;19.40;76.80;;;;;;5061565;28;20035;-64
2023/05/22 02:24:05;;;;;;;19.75;15.90;;;19.40;76.70;;;;;;5073988;28;20373;-63
2023/05/22 02:26:31;;;;;;;18.45;14.90;;;19.40;76.80;;;;;;5072686;28;20569;-63
2023/05/22 02:28:58;;;;;;;19.90;14.88;;;19.40;76.80;;;;;;5060527;28;20040;-63
2023/05/22 02:31:25;;;;;;;19.77;14.85;;;19.40;76.80;;;;;;5067311;28;20400;-63
2023/05/22 02:33:50;;;;;;;21.63;15.20;;;19.40;76.80;;;;;;5059178;28;20020;-64
2023/05/22 02:36:16;;;;;;;19.98;14.65;;;19.40;76.80;;;;;;5073656;28;20097;-63
2023/05/22 02:38:46;;;;;;;19.73;15.27;;;19.30;76.80;;;;;;5071569;28;20033;-63
2023/05/22 02:41:11;;;;;;;20.33;15.27;;;19.30;76.80;;;;;;5059543;28;20032;-63
2023/05/22 02:43:37;;;;;;;20.33;15.20;;;19.30;76.80;;;;;;5073473;28;20058;-64
2023/05/22 02:46:03;;;;;;;21.67;14.98;;;19.30;76.80;;;;;;5073363;28;20126;-63
2023/05/22 02:48:29;;;;;;;22.38;15.45;;;19.30;76.80;;;;;;5072151;28;20020;-63
2023/05/22 02:50:55;;;;;;;19.05;14.82;;;19.20;76.80;;;;;;5072744;28;20473;-63
2023/05/22 02:53:20;;;;;;;19.98;14.20;;;19.20;76.70;;;;;;5071806;28;20020;-63
2023/05/22 02:55:47;;;;;;;21.77;15.07;;;19.20;76.80;;;;;;5062006;28;20361;-63
2023/05/22 02:58:13;;;;;;;22.77;16.25;;;19.20;76.80;;;;;;5073668;28;20032;-63
2023/05/22 03:00:42;;;;;;;21.60;15.88;;;19.20;76.80;;;;;;5069586;28;20040;-63
2023/05/22 03:03:08;;;;;;;20.52;16.35;;;19.10;76.80;;;;;;5068045;28;20029;-63
2023/05/22 03:05:33;;;;;;;18.88;14.93;;;19.10;76.90;;;;;;5059023;28;20109;-63
2023/05/22 03:07:59;;;;;;;20.20;15.23;;;19.10;76.90;;;;;;5072642;28;20146;-63
2023/05/22 03:10:25;;;;;;;20.52;15.60;;;19.10;76.90;;;;;;5071210;28;20012;-63
2023/05/22 03:12:51;;;;;;;21.58;15.30;;;19.00;76.90;;;;;;5067073;28;20020;-63
2023/05/22 03:15:20;;;;;;;21.08;15.88;;;19.00;76.90;;;;;;5072948;28;20101;-63
2023/05/22 03:17:46;;;;;;;20.92;15.30;;;19.00;76.90;;;;;;5072336;28;20109;-63
2023/05/22 03:20:16;;;;;;;20.63;15.65;;;19.00;77.00;;;;;;5071549;28;20101;-63
2023/05/22 03:22:44;;;;;;;22.20;16.27;;;19.00;77.00;;;;;;5066888;28;20453;-64
2023/05/22 03:25:10;;;;;;;20.58;15.40;;;18.90;77.00;;;;;;5085670;28;20445;-63
2023/05/22 03:27:39;;;;;;;22.98;15.65;;;18.90;77.00;;;;;;5060772;28;20417;-63
2023/05/22 03:30:07;;;;;;;19.90;15.15;;;18.90;77.00;;;;;;5072638;28;20029;-63
2023/05/22 03:32:37;;;;;;;18.17;14.63;;;18.90;77.00;;;;;;5074739;28;20474;-63
2023/05/22 03:35:04;;;;;;;17.90;14.32;;;18.90;77.10;;;;;;5073353;28;20122;-63
2023/05/22 03:37:30;;;;;;;22.38;16.40;;;18.90;77.10;;;;;;5070872;28;20025;-63
2023/05/22 03:39:56;;;;;;;19.65;15.68;;;18.80;77.10;;;;;;5061912;28;20031;-63
2023/05/22 03:42:28;;;;;;;20.67;15.82;;;18.80;77.10;;;;;;5061879;28;20130;-63
2023/05/22 03:44:55;;;;;;;23.10;16.15;;;18.80;77.10;;;;;;5067090;28;20395;-63
2023/05/22 03:47:21;;;;;;;21.25;15.23;;;18.80;77.10;;;;;;5063778;28;20116;-63
2023/05/22 03:49:47;;;;;;;23.17;16.58;;;18.80;77.20;;;;;;5068775;28;20086;-63
2023/05/22 03:52:13;;;;;;;23.45;16.38;;;18.80;77.10;;;;;;5069262;28;20053;-63
2023/05/22 03:54:39;;;;;;;20.52;15.55;;;18.80;77.10;;;;;;5067900;28;20027;-63
2023/05/22 03:57:04;;;;;;;18.42;14.50;;;18.80;77.20;;;;;;5067211;28;20017;-64
2023/05/22 03:59:30;;;;;;;18.60;15.05;;;18.80;77.10;;;;;;5072375;28;20364;-64
2023/05/22 04:01:59;;;;;;;23.00;16.15;;;18.80;77.20;;;;;;5068676;28;20036;-64
2023/05/22 04:04:27;;;;;;;22.00;16.33;;;18.70;77.10;;;;;;5056058;28;20445;-64
2023/05/22 04:06:53;;;;;;;19.65;15.57;;;18.80;77.90;;;;;;5056851;28;20029;-64
2023/05/22 04:09:18;;;;;;;20.48;16.27;;;18.70;77.20;;;;;;5063760;28;20468;-64
2023/05/22 04:11:45;;;;;;;19.58;15.95;;;18.70;77.20;;;;;;5067988;28;20033;-64
2023/05/22 04:14:11;;;;;;;20.58;16.02;;;18.70;77.10;;;;;;5067062;28;20383;-64
2023/05/22 04:16:37;;;;;;;22.13;16.27;;;18.80;77.20;;;;;;5068730;28;20048;-64
2023/05/22 04:19:04;;;;;;;19.17;15.27;;;18.80;77.10;;;;;;5069747;28;20025;-64
2023/05/22 04:21:34;;;;;;;19.83;16.38;;;18.70;77.10;;;;;;5076887;28;20024;-64
2023/05/22 04:24:01;;;;;;;20.52;15.70;;;18.70;77.10;;;;;;5062720;28;20110;-64
2023/05/22 04:26:30;;;;;;;21.52;16.13;;;18.70;77.10;;;;;;5075288;28;20131;-64
2023/05/22 04:28:56;;;;;;;21.00;15.77;;;18.70;77.10;;;;;;5070018;28;20124;-64
2023/05/22 04:31:22;;;;;;;23.17;16.05;;;18.70;77.10;;;;;;5071309;28;20111;-64
2023/05/22 04:33:49;;;;;;;21.90;15.25;;;18.70;77.00;;;;;;5066219;28;20438;-64
2023/05/22 04:36:16;;;;;;;22.20;16.13;;;18.70;77.00;;;;;;5065619;28;20028;-64
2023/05/22 04:38:43;;;;;;;20.95;16.23;;;18.70;77.00;;;;;;5057974;28;20453;-64
2023/05/22 04:41:16;;;;;;;20.05;16.05;;;18.70;77.00;;;;;;5058759;28;20039;-64
2023/05/22 04:43:47;;;;;;;21.00;16.50;;;18.70;77.00;;;;;;5068721;28;20025;-64
2023/05/22 04:46:14;;;;;;;21.80;16.13;;;18.70;77.00;;;;;;5059555;28;20040;-64
2023/05/22 04:48:40;;;;;;;21.50;16.23;;;18.70;77.00;;;;;;5060000;28;20028;-64
2023/05/22 04:51:06;;;;;;;22.40;17.70;;;18.70;76.90;;;;;;5063015;28;20051;-64
2023/05/22 04:53:32;;;;;;;22.30;16.17;;;18.70;76.90;;;;;;5069846;28;20171;-64
2023/05/22 04:55:58;;;;;;;19.80;16.10;;;18.80;76.90;;;;;;5074537;28;20016;-64
2023/05/22 04:58:28;;;;;;;20.48;15.40;;;18.80;76.90;;;;;;5072791;28;20063;-64
2023/05/22 05:00:56;;;;;;;21.67;15.70;;;18.80;76.90;;;;;;5064943;28;20029;-64
2023/05/22 05:03:24;;;;;;;20.55;15.27;;;18.80;77.00;;;;;;5061371;28;20025;-64
2023/05/22 05:05:51;;;;;;;19.10;15.70;;;18.80;77.60;;;;;;5082385;28;20075;-64
2023/05/22 05:08:17;;;;;;;18.75;15.02;;;18.80;76.90;;;;;;5066159;28;20123;-64
2023/05/22 05:10:42;;;;;;;20.05;14.73;;;18.80;76.90;;;;;;5073266;28;20107;-64
2023/05/22 05:13:08;;;;;;;18.92;15.45;;;18.80;76.80;;;;;;5075693;28;20028;-64
2023/05/22 05:15:37;;;;;;;18.85;14.93;;;18.90;76.70;;;;;;5076741;28;20124;-64
2023/05/22 05:18:03;;;;;;;19.65;15.02;;;19.00;76.60;;;;;;5059673;28;20068;-64
2023/05/22 05:20:29;;;;;;;20.80;16.42;;;19.00;76.50;;;;;;5076762;28;20024;-64
2023/05/22 05:22:55;;;;;;;18.05;14.25;;;19.20;76.20;;;;;;5076192;28;20048;-64
2023/05/22 05:25:21;;;;;;;15.30;13.07;;;19.40;75.60;;;;;;5077435;28;20108;-64
2023/05/22 05:27:47;;;;;;;15.13;13.10;;;19.40;75.10;;;;;;5076092;28;20534;-64
2023/05/22 05:30:14;;;;;;;14.75;12.70;;;19.40;75.00;;;;;;5075188;28;20353;-64
2023/05/22 05:32:52;;;;;;;14.43;11.95;;;19.40;74.90;;;;;;5082591;28;20021;-64
2023/05/22 05:35:31;;;;;;;14.35;11.70;;;19.40;74.90;;;;;;5074379;28;20017;-64
2023/05/22 05:38:02;;;;;;;15.00;12.32;;;19.40;74.90;;;;;;5076203;28;20229;-64
2023/05/22 05:40:29;;;;;;;14.20;12.70;;;19.40;74.70;;;;;;5076162;28;20032;-64
2023/05/22 05:42:55;;;;;;;18.42;12.85;;;19.40;74.60;;;;;;5067121;28;20024;-64
2023/05/22 05:45:25;;;;;;;14.27;12.60;;;19.40;74.50;;;;;;5069337;28;20020;-64
2023/05/22 05:47:51;;;;;;;16.15;13.00;;;19.50;74.50;;;;;;5074650;28;20039;-64
2023/05/22 05:50:17;;;;;;;14.88;12.30;;;19.50;74.30;;;;;;5075904;28;20035;-64
2023/05/22 05:52:43;;;;;;;15.43;13.15;;;19.50;74.20;;;;;;5058061;28;20016;-63
2023/05/22 05:55:13;;;;;;;14.55;11.52;;;19.50;74.10;;;;;;5075510;28;20083;-64
2023/05/22 05:57:40;;;;;;;17.23;13.55;;;19.50;74.10;;;;;;5059013;28;20119;-64
2023/05/22 06:00:10;;;;;;;15.88;13.05;;;19.50;74.00;;;;;;5059590;28;20055;-64
2023/05/22 06:02:42;;;;;;;17.20;14.48;;;19.50;74.00;;;;;;5067086;28;20021;-64
2023/05/22 06:05:22;;;;;;;16.38;13.23;;;19.50;74.10;;;;;;5070651;28;20028;-63
2023/05/22 06:07:56;;;;;;;15.43;12.70;;;19.50;74.10;;;;;;5059304;28;20120;-63
2023/05/22 06:10:22;;;;;;;17.10;12.85;;;19.50;74.20;;;;;;5068516;28;20350;-65
2023/05/22 06:12:55;;;;;;;15.68;13.35;;;19.50;74.20;;;;;;5069591;28;20169;-64
2023/05/22 06:15:21;;;;;;;15.68;13.20;;;19.50;74.10;;;;;;5073302;28;20021;-65
2023/05/22 06:17:47;;;;;;;15.82;13.07;;;19.60;74.10;;;;;;5056858;28;20025;-65
2023/05/22 06:20:14;;;;;;;20.05;13.90;;;19.60;73.90;;;;;;5074087;28;20422;-65
2023/05/22 06:22:41;;;;;;;16.10;13.80;;;19.70;73.90;;;;;;5056866;28;20017;-65
2023/05/22 06:25:09;;;;;;;16.35;13.35;;;19.80;73.80;;;;;;5065082;28;20075;-65
2023/05/22 06:27:35;;;;;;;16.77;13.05;;;19.90;73.70;;;;;;5074441;28;20040;-65
2023/05/22 06:30:02;;;;;;;16.27;14.20;;;20.00;73.60;;;;;;5069498;28;20385;-65
2023/05/22 06:32:32;;;;;;;16.15;13.23;;;20.00;73.60;;;;;;5066299;28;20080;-65
2023/05/22 06:34:58;;;;;;;15.32;13.70;;;20.10;73.30;;;;;;5062825;28;20404;-65
2023/05/22 06:37:25;;;;;;;16.60;13.63;;;20.30;73.10;;;;;;5073030;28;20108;-65
2023/05/22 06:39:52;;;;;;;15.80;13.52;;;20.50;72.80;;;;;;5058930;28;20464;-65
2023/05/22 06:42:29;;;;;;;17.75;14.30;;;20.60;72.50;;;;;;5072364;28;20029;-65
2023/05/22 06:45:16;;;;;;;18.20;14.75;;;20.80;72.20;;;;;;5056840;28;20040;-65
2023/05/22 06:47:58;;;;;;;16.38;12.77;;;20.90;71.90;;;;;;5067155;28;20025;-65
2023/05/22 06:50:24;;;;;;;15.73;13.10;;;21.10;71.60;;;;;;5059274;28;20025;-65
2023/05/22 06:52:50;;;;;;;17.00;14.52;;;21.30;71.30;;;;;;5071770;28;20361;-65
2023/05/22 06:55:16;;;;;;;17.27;13.45;;;21.40;71.00;;;;;;5070538;28;20029;-65
2023/05/22 06:58:02;;;;;;;17.95;13.30;;;21.50;70.80;;;;;;5068907;28;20040;-65
2023/05/22 07:00:29;;;;;;;15.13;12.45;;;21.70;70.50;;;;;;5069883;28;20028;-65
2023/05/22 07:03:04;;;;;;;16.92;13.07;;;21.80;70.20;;;;;;5074447;28;20028;-65
2023/05/22 07:05:37;;;;;;;18.30;15.25;;;22.00;69.90;;;;;;5077097;28;20029;-64
2023/05/22 07:08:05;;;;;;;19.25;13.90;;;22.10;69.50;;;;;;5062040;28;20159;-66
2023/05/22 07:10:30;;;;;;;17.13;12.77;;;22.30;69.20;;;;;;5064231;28;20111;-64
2023/05/22 07:12:58;;;;;;;16.20;12.95;;;22.50;69.00;;;;;;5068862;28;20029;-64
2023/05/22 07:15:24;;;;;;;15.25;13.07;;;22.60;68.60;;;;;;5066582;28;20397;-63
2023/05/22 07:17:52;;;;;;;18.00;14.23;;;22.70;68.30;;;;;;5050870;28;20040;-65
2023/05/22 07:20:18;;;;;;;16.60;12.75;;;22.80;68.00;;;;;;5063390;28;20100;-65
2023/05/22 07:22:57;;;;;;;17.02;14.07;;;23.00;67.70;;;;;;5065053;28;20093;-65
2023/05/22 07:25:23;;;;;;;16.30;13.20;;;23.20;67.40;;;;;;5065906;28;20150;-65
2023/05/22 07:27:49;;;;;;;15.20;11.93;;;23.30;67.00;;;;;;5064255;28;20504;-65
2023/05/22 07:30:18;;;;;;;16.67;13.45;;;23.50;66.60;;;;;;5066340;28;20028;-63
2023/05/22 07:32:45;;;;;;;15.80;12.52;;;23.60;66.20;;;;;;5064558;28;20093;-64
2023/05/22 07:35:11;;;;;;;15.30;12.10;;;23.70;65.90;;;;;;5064546;28;20024;-63
2023/05/22 07:37:38;;;;;;;14.95;12.65;;;23.80;65.50;;;;;;5065898;28;20020;-63
2023/05/22 07:40:11;;;;;;;14.90;12.15;;;23.90;65.20;;;;;;5065626;28;20025;-63
2023/05/22 07:42:37;;;;;;;14.45;11.65;;;24.00;64.90;;;;;;5067025;28;20031;-63
2023/05/22 07:45:04;;;;;;;15.30;11.70;;;24.20;64.80;;;;;;5047420;28;20024;-62
2023/05/22 07:47:30;;;;;;;15.77;12.18;;;24.30;64.60;;;;;;5062702;28;20029;-63
2023/05/22 07:49:56;;;;;;;16.35;12.57;;;24.40;64.40;;;;;;5046441;28;20318;-63
2023/05/22 07:52:22;;;;;;;15.82;13.02;;;24.50;64.10;;;;;;5065167;28;20295;-63
2023/05/22 07:54:49;;;;;;;16.10;12.13;;;24.60;63.80;;;;;;5061353;28;20028;-63
2023/05/22 07:57:16;;;;;;;15.10;12.73;;;24.80;63.60;;;;;;5063570;28;20020;-63
2023/05/22 07:59:42;;;;;;;17.08;12.45;;;24.90;63.40;;;;;;5064719;28;20016;-63
2023/05/22 08:02:08;;;;;;;15.98;12.88;;;25.10;63.10;;;;;;5062576;28;20028;-63
2023/05/22 08:04:34;;;;;;;15.32;11.98;;;25.10;62.70;;;;;;5066700;28;20437;-63
2023/05/22 08:07:00;;;;;;;14.50;11.70;;;25.20;62.40;;;;;;5064533;28;20029;-63
2023/05/22 08:09:26;;;;;;;13.85;10.68;;;25.30;62.40;;;;;;5066481;28;20035;-63
2023/05/22 08:11:52;;;;;;;15.05;11.80;;;25.40;62.30;;;;;;5065092;28;20020;-63
2023/05/22 08:14:17;;;;;;;14.82;11.90;;;25.50;61.90;;;;;;5062720;28;20028;-63
2023/05/22 08:16:43;;;;;;;14.13;11.23;;;25.60;61.70;;;;;;5064670;28;20062;-63
2023/05/22 08:19:09;;;;;;;13.13;10.57;;;25.60;61.50;;;;;;5064944;28;20024;-63
2023/05/22 08:21:36;;;;;;;13.32;11.07;;;25.80;61.30;;;;;;5065547;28;20036;-63
2023/05/22 08:24:02;;;;;;;13.90;10.15;;;25.80;61.00;;;;;;5065060;28;20051;-63
2023/05/22 08:26:28;;;;;;;13.52;11.43;;;26.00;61.00;;;;;;5064278;28;20138;-63
2023/05/22 08:28:54;;;;;;;14.57;11.80;;;26.10;60.80;;;;;;5062751;28;20041;-63
2023/05/22 08:31:20;;;;;;;13.77;12.27;;;26.10;60.30;;;;;;5065941;28;20040;-63
2023/05/22 08:33:45;;;;;;;16.33;12.77;;;26.20;60.20;;;;;;5065281;28;20369;-63
2023/05/22 08:36:12;;;;;;;16.33;12.27;;;26.20;59.80;;;;;;5063157;28;20074;-63
2023/05/22 08:38:37;;;;;;;14.90;11.68;;;26.30;59.60;;;;;;5065416;28;20028;-63
2023/05/22 08:41:04;;;;;;;14.55;12.43;;;26.30;59.50;;;;;;5064227;28;20040;-63
2023/05/22 08:43:30;;;;;;;15.30;11.82;;;26.40;59.30;;;;;;5064400;28;20032;-63
2023/05/22 08:46:02;;;;;;;11.60;9.48;;;26.40;59.10;;;;;;5067475;28;20097;-62
2023/05/22 08:48:30;;;;;;;15.48;11.07;;;26.50;59.30;;;;;;5062840;28;20457;-63
2023/05/22 08:51:03;;;;;;;14.85;11.48;;;26.60;59.30;;;;;;5062195;28;20432;-63
2023/05/22 08:53:37;;;;;;;13.85;11.70;;;26.70;58.90;;;;;;5065000;28;21440;-63
2023/05/22 08:56:07;;;;;;;13.20;10.70;;;26.80;58.70;;;;;;5065336;28;20441;-63
2023/05/22 08:58:35;;;;;;;14.18;12.05;;;27.00;58.60;;;;;;5060777;28;20045;-63
2023/05/22 09:01:03;;;;;;;14.23;11.65;;;27.10;58.20;;;;;;5062487;28;20033;-63
2023/05/22 09:03:33;;;;;;;12.38;10.27;;;26.90;58.20;;;;;;5061531;28;20039;-63
2023/05/22 09:05:59;;;;;;;12.73;10.32;;;26.90;58.50;;;;;;5073450;28;20483;-63
2023/05/22 09:08:27;;;;;;;12.93;10.00;;;27.00;58.50;;;;;;5062383;28;20036;-63
2023/05/22 09:10:56;;;;;;;13.75;9.75;;;27.00;58.30;;;;;;5066815;28;20033;-63
2023/05/22 09:13:30;;;;;;;14.57;10.85;;;26.70;58.40;;;;;;5069290;28;20468;-63
2023/05/22 09:16:06;;;;;;;14.63;10.60;;;26.40;58.90;;;;;;5060433;28;20100;-63
2023/05/22 09:18:32;;;;;;;12.80;10.27;;;26.00;59.30;;;;;;5073229;28;20047;-63
2023/05/22 09:20:59;;;;;;;12.48;10.20;;;25.80;59.70;;;;;;5072408;28;20119;-63
2023/05/22 09:23:27;;;;;;;13.35;10.90;;;25.60;59.90;;;;;;5072301;28;20024;-63
2023/05/22 09:25:57;;;;;;;13.65;10.07;;;25.70;59.50;;;;;;5073257;28;20040;-63
2023/05/22 09:28:23;;;;;;;13.83;10.07;;;26.00;58.50;;;;;;5073098;28;20400;-63
2023/05/22 09:30:50;;;;;;;14.65;9.18;;;26.30;58.00;;;;;;5073178;28;20028;-63
2023/05/22 09:33:17;;;;;;;12.18;10.38;;;26.70;57.40;;;;;;5060534;28;20033;-63
2023/05/22 09:35:45;;;;;;;11.63;9.00;;;27.10;56.60;;;;;;5073209;28;20020;-63
2023/05/22 09:38:12;;;;;;;12.70;10.18;;;27.30;56.20;;;;;;5072431;28;20174;-63
2023/05/22 09:40:41;;;;;;;11.82;9.20;;;27.30;56.00;;;;;;5076347;28;20112;-63
2023/05/22 09:43:08;;;;;;;12.77;9.73;;;27.10;56.10;;;;;;5076199;28;20040;-63
2023/05/22 09:45:35;;;;;;;11.32;8.73;;;26.80;56.10;;;;;;5069587;28;20430;-63
2023/05/22 09:48:02;;;;;;;11.23;8.65;;;26.70;56.40;;;;;;5069441;28;20085;-63
2023/05/22 09:50:28;;;;;;;11.45;8.38;;;26.90;56.00;;;;;;5077101;28;20427;-63
2023/05/22 09:52:55;;;;;;;12.10;9.07;;;27.20;55.50;;;;;;5076184;28;20040;-63
2023/05/22 09:55:22;;;;;;;11.98;9.07;;;27.50;54.80;;;;;;5075705;28;20619;-64
2023/05/22 09:57:51;;;;;;;10.43;8.07;;;27.70;54.20;;;;;;5076549;28;20044;-63
2023/05/22 10:00:18;;;;;;;10.65;6.93;;;28.00;53.70;;;;;;5076040;28;20067;-64
2023/05/22 10:02:47;;;;;;;10.18;7.22;;;28.20;53.10;;;;;;5076726;28;20017;-64
2023/05/22 10:05:22;;;;;;;11.18;7.30;;;28.40;52.50;;;;;;5075263;28;20109;-64
2023/05/22 10:07:50;;;;;;;11.38;8.45;;;28.40;52.40;;;;;;5074981;28;20016;-64
2023/05/22 10:10:24;;;;;;;11.98;8.25;;;28.20;52.30;;;;;;5076552;28;20024;-63
2023/05/22 10:13:10;;;;;;;10.23;8.15;;;28.10;52.40;;;;;;5075333;28;20025;-63
2023/05/22 10:15:36;;;;;;;15.57;8.68;;;28.10;52.30;;;;;;5070682;28;20043;-64
2023/05/22 10:18:04;;;;;;;13.82;9.45;;;27.90;52.80;;;;;;5068916;28;20067;-64
2023/05/22 10:20:29;;;;;;;11.77;9.32;;;27.60;53.50;;;;;;5076580;28;20115;-63
2023/05/22 10:22:55;;;;;;;11.80;9.13;;;27.20;54.00;;;;;;5076248;28;20092;-63
2023/05/22 10:25:22;;;;;;;10.90;8.75;;;27.00;54.50;;;;;;5075145;28;20044;-63
2023/05/22 10:27:51;;;;;;;12.35;9.77;;;26.70;54.90;;;;;;5075751;28;20094;-64
2023/05/22 10:30:23;;;;;;;12.73;9.73;;;26.40;55.40;;;;;;5072445;28;20039;-64
2023/05/22 10:33:32;;;;;;;11.82;9.13;;;26.20;55.90;;;;;;5069538;28;20033;-64
2023/05/22 10:36:03;;;;;;;13.50;9.95;;;25.90;55.90;;;;;;5062278;28;20465;-64
2023/05/22 10:38:44;;;;;;;12.32;9.98;;;25.80;56.60;;;;;;5067049;28;20037;-64
2023/05/22 10:41:11;;;;;;;11.75;9.77;;;25.70;56.90;;;;;;5073295;28;20036;-63
2023/05/22 10:43:47;;;;;;;11.48;9.18;;;25.90;56.80;;;;;;5075631;28;20480;-64
2023/05/22 10:46:13;;;;;;;11.98;10.02;;;26.30;56.50;;;;;;5059962;28;20536;-63
2023/05/22 10:48:44;;;;;;;12.75;9.32;;;26.70;55.70;;;;;;5071842;28;20025;-64
2023/05/22 10:51:16;;;;;;;12.20;9.50;;;27.10;55.10;;;;;;5075143;28;20025;-64
2023/05/22 10:53:44;;;;;;;12.50;9.07;;;27.40;54.30;;;;;;5074573;28;20028;-64
2023/05/22 10:56:16;;;;;;;12.07;9.13;;;27.70;54.10;;;;;;5074061;28;20099;-63
2023/05/22 10:58:56;;;;;;;12.73;8.93;;;27.90;53.90;;;;;;5074748;28;20124;-63
2023/05/22 11:01:24;;;;;;;12.48;8.77;;;28.00;53.40;;;;;;5074852;28;20103;-64
2023/05/22 11:03:58;;;;;;;13.25;10.02;;;28.00;53.40;;;;;;5074886;28;20479;-63
2023/05/22 11:06:44;;;;;;;13.23;9.82;;;28.00;53.30;;;;;;5074609;28;20403;-64
2023/05/22 11:09:18;;;;;;;11.55;9.25;;;27.80;53.00;;;;;;5069330;28;20115;-63
2023/05/22 11:11:46;;;;;;;11.80;9.48;;;27.60;53.50;;;;;;5071400;28;20441;-64
2023/05/22 11:14:15;;;;;;;12.15;9.35;;;27.60;53.80;;;;;;5073705;28;20023;-64
2023/05/22 11:16:40;;;;;;;12.27;10.02;;;27.60;53.50;;;;;;5074100;28;20460;-63
2023/05/22 11:19:07;;;;;;;12.57;9.50;;;27.70;53.20;;;;;;5072104;28;20040;-64
2023/05/22 11:21:46;;;;;;;12.82;9.20;;;27.90;53.00;;;;;;5074917;28;20442;-64
2023/05/22 11:24:14;;;;;;;10.80;8.57;;;28.10;53.00;;;;;;5062167;28;20032;-64
2023/05/22 11:26:43;;;;;;;12.40;9.02;;;28.30;52.80;;;;;;5071942;28;20093;-64
2023/05/22 11:29:09;;;;;;;12.18;9.48;;;28.50;52.30;;;;;;5057879;28;20033;-64
2023/05/22 11:31:36;;;;;;;13.80;8.93;;;28.50;52.20;;;;;;5066655;28;20104;-64
2023/05/22 11:34:02;;;;;;;12.48;9.43;;;28.60;52.40;;;;;;5063139;28;20024;-64
2023/05/22 11:36:28;;;;;;;11.68;9.02;;;28.80;52.20;;;;;;5063296;28;20029;-63
2023/05/22 11:38:58;;;;;;;12.18;9.45;;;28.90;52.50;;;;;;5059560;28;20119;-63
2023/05/22 11:41:28;;;;;;;14.13;9.40;;;28.90;51.60;;;;;;5063467;28;20035;-64
2023/05/22 11:43:54;;;;;;;11.50;9.23;;;28.70;51.90;;;;;;5063094;28;20755;-63
2023/05/22 11:46:20;;;;;;;12.25;8.90;;;28.30;52.10;;;;;;5064121;28;20370;-63
2023/05/22 11:48:47;;;;;;;13.80;10.07;;;28.00;52.40;;;;;;5070387;28;20111;-63
2023/05/22 11:51:13;;;;;;;13.10;9.85;;;27.80;52.90;;;;;;5063164;28;20087;-64
2023/05/22 11:53:40;;;;;;;14.13;10.90;;;27.70;53.30;;;;;;5056512;28;20036;-64
2023/05/22 11:56:06;;;;;;;18.25;11.38;;;27.60;53.80;;;;;;5064293;28;20025;-64
2023/05/22 11:58:32;;;;;;;13.85;11.65;;;27.50;54.10;;;;;;5072045;28;20064;-63
2023/05/22 12:01:02;;;;;;;16.50;10.70;;;27.30;54.00;;;;;;5066448;28;20040;-64
2023/05/22 12:03:29;;;;;;;12.45;9.85;;;27.20;54.50;;;;;;5065404;28;20044;-64
2023/05/22 12:05:56;;;;;;;12.98;9.70;;;27.10;54.80;;;;;;5062950;28;20024;-64
2023/05/22 12:08:24;;;;;;;15.15;11.65;;;26.90;54.90;;;;;;5065653;28;20353;-63
2023/05/22 12:10:51;;;;;;;16.52;13.30;;;26.80;55.80;;;;;;5064020;28;20353;-63
2023/05/22 12:13:28;;;;;;;18.38;13.88;;;26.60;57.10;;;;;;5059924;28;20016;-64
2023/05/22 12:15:58;;;;;;;15.43;12.77;;;26.50;58.40;;;;;;5056709;28;20078;-64
2023/05/22 12:18:24;;;;;;;16.67;11.45;;;26.40;58.80;;;;;;5067534;28;20048;-64
2023/05/22 12:20:53;;;;;;;13.52;10.35;;;26.50;59.30;;;;;;5063993;28;20044;-64
2023/05/22 12:23:25;;;;;;;15.38;11.57;;;26.70;59.30;;;;;;5058333;28;20033;-64
2023/05/22 12:25:59;;;;;;;13.45;11.32;;;26.80;59.00;;;;;;5061284;28;20036;-65
2023/05/22 12:28:25;;;;;;;13.40;11.60;;;26.80;58.70;;;;;;5056573;28;20468;-64
2023/05/22 12:30:53;;;;;;;12.50;10.75;;;26.70;58.50;;;;;;5053536;28;20021;-64
2023/05/22 12:33:27;;;;;;;13.38;11.05;;;26.60;58.50;;;;;;5054413;28;20045;-65
2023/05/22 12:35:57;;;;;;;15.50;11.40;;;26.40;58.60;;;;;;5057519;28;20027;-64
2023/05/22 12:38:28;;;;;;;15.48;11.10;;;26.30;58.80;;;;;;5060474;28;20108;-65